sensor_id;sensor_type;location;lat;lon;timestamp;P1;durP1;ratioP1;P2;durP2;ratioP2
70866;SDS011;58487;53.474;49.470;2023-02-10T00:01:24;11.48;;;4.45;;
70866;SDS011;58487;53.474;49.470;2023-02-10T00:03:52;12.48;;;4.30;;
70866;SDS011;58487;53.474;49.470;2023-02-10T00:06:19;13.95;;;4.90;;
70866;SDS011;58487;53.474;49.470;2023-02-10T00:08:46;10.77;;;4.17;;
70866;SDS011;58487;53.474;49.470;2023-02-10T00:11:13;12.77;;;4.97;;
70866;SDS011;58487;53.474;49.470;2023-02-10T00:13:41;13.05;;;4.80;;
70866;SDS011;58487;53.474;49.470;2023-02-10T00:16:07;11.57;;;4.15;;
70866;SDS011;58487;53.474;49.470;2023-02-10T00:18:36;13.35;;;4.55;;
70866;SDS011;58487;53.474;49.470;2023-02-10T00:21:06;15.13;;;5.00;;
70866;SDS011;58487;53.474;49.470;2023-02-10T00:23:38;10.70;;;4.65;;
70866;SDS011;58487;53.474;49.470;2023-02-10T00:26:05;18.17;;;5.00;;
70866;SDS011;58487;53.474;49.470;2023-02-10T00:28:33;14.98;;;5.13;;
70866;SDS011;58487;53.474;49.470;2023-02-10T00:31:04;14.57;;;5.45;;
70866;SDS011;58487;53.474;49.470;2023-02-10T00:33:32;17.60;;;4.70;;
70866;SDS011;58487;53.474;49.470;2023-02-10T00:35:58;12.90;;;5.55;;
70866;SDS011;58487;53.474;49.470;2023-02-10T00:38:24;15.07;;;5.30;;
70866;SDS011;58487;53.474;49.470;2023-02-10T00:40:50;10.38;;;4.20;;
70866;SDS011;58487;53.474;49.470;2023-02-10T00:43:16;11.48;;;4.65;;
70866;SDS011;58487;53.474;49.470;2023-02-10T00:45:42;15.23;;;5.20;;
70866;SDS011;58487;53.474;49.470;2023-02-10T00:48:08;14.52;;;6.00;;
70866;SDS011;58487;53.474;49.470;2023-02-10T00:50:34;16.45;;;5.78;;
70866;SDS011;58487;53.474;49.470;2023-02-10T00:53:00;13.15;;;5.18;;
70866;SDS011;58487;53.474;49.470;2023-02-10T00:55:26;13.35;;;5.10;;
70866;SDS011;58487;53.474;49.470;2023-02-10T00:57:52;13.87;;;4.23;;
70866;SDS011;58487;53.474;49.470;2023-02-10T01:00:18;13.23;;;5.30;;
70866;SDS011;58487;53.474;49.470;2023-02-10T01:02:45;12.45;;;4.25;;
70866;SDS011;58487;53.474;49.470;2023-02-10T01:05:11;13.20;;;4.75;;
70866;SDS011;58487;53.474;49.470;2023-02-10T01:07:37;13.80;;;5.22;;
70866;SDS011;58487;53.474;49.470;2023-02-10T01:10:03;13.03;;;4.73;;
70866;SDS011;58487;53.474;49.470;2023-02-10T01:12:29;13.23;;;5.07;;
70866;SDS011;58487;53.474;49.470;2023-02-10T01:14:55;14.02;;;5.03;;
70866;SDS011;58487;53.474;49.470;2023-02-10T01:17:21;12.95;;;5.53;;
70866;SDS011;58487;53.474;49.470;2023-02-10T01:19:47;17.30;;;6.20;;
70866;SDS011;58487;53.474;49.470;2023-02-10T01:22:16;12.67;;;4.83;;
70866;SDS011;58487;53.474;49.470;2023-02-10T01:24:42;14.18;;;4.95;;
70866;SDS011;58487;53.474;49.470;2023-02-10T01:27:08;10.85;;;4.35;;
70866;SDS011;58487;53.474;49.470;2023-02-10T01:29:34;11.00;;;3.95;;
70866;SDS011;58487;53.474;49.470;2023-02-10T01:32:00;11.48;;;4.50;;
70866;SDS011;58487;53.474;49.470;2023-02-10T01:34:26;15.37;;;5.63;;
70866;SDS011;58487;53.474;49.470;2023-02-10T01:36:52;11.30;;;4.05;;
70866;SDS011;58487;53.474;49.470;2023-02-10T01:39:18;12.52;;;5.13;;
70866;SDS011;58487;53.474;49.470;2023-02-10T01:41:44;14.30;;;5.35;;
70866;SDS011;58487;53.474;49.470;2023-02-10T01:46:46;14.93;;;4.73;;
70866;SDS011;58487;53.474;49.470;2023-02-10T01:49:17;12.40;;;4.93;;
70866;SDS011;58487;53.474;49.470;2023-02-10T01:54:23;7.78;;;2.92;;
70866;SDS011;58487;53.474;49.470;2023-02-10T01:56:56;10.45;;;3.33;;
70866;SDS011;58487;53.474;49.470;2023-02-10T01:59:23;8.40;;;2.97;;
70866;SDS011;58487;53.474;49.470;2023-02-10T02:01:50;11.02;;;4.35;;
70866;SDS011;58487;53.474;49.470;2023-02-10T02:04:16;6.80;;;2.90;;
70866;SDS011;58487;53.474;49.470;2023-02-10T02:06:42;7.57;;;2.58;;
70866;SDS011;58487;53.474;49.470;2023-02-10T02:09:09;9.52;;;2.78;;
70866;SDS011;58487;53.474;49.470;2023-02-10T02:16:38;14.50;;;5.35;;
70866;SDS011;58487;53.474;49.470;2023-02-10T02:22:12;9.55;;;4.07;;
70866;SDS011;58487;53.474;49.470;2023-02-10T02:27:52;7.88;;;2.55;;
70866;SDS011;58487;53.474;49.470;2023-02-10T02:30:48;9.45;;;2.58;;
70866;SDS011;58487;53.474;49.470;2023-02-10T02:36:24;4.68;;;2.08;;
70866;SDS011;58487;53.474;49.470;2023-02-10T02:39:10;5.67;;;2.00;;
70866;SDS011;58487;53.474;49.470;2023-02-10T02:41:36;5.35;;;1.40;;
70866;SDS011;58487;53.474;49.470;2023-02-10T02:44:02;5.07;;;1.92;;
70866;SDS011;58487;53.474;49.470;2023-02-10T02:53:05;6.70;;;2.27;;
70866;SDS011;58487;53.474;49.470;2023-02-10T03:00:46;7.00;;;2.75;;
70866;SDS011;58487;53.474;49.470;2023-02-10T03:03:15;7.75;;;2.72;;
70866;SDS011;58487;53.474;49.470;2023-02-10T03:05:41;7.60;;;2.80;;
70866;SDS011;58487;53.474;49.470;2023-02-10T03:08:08;6.50;;;2.22;;
70866;SDS011;58487;53.474;49.470;2023-02-10T03:10:34;11.65;;;4.10;;
70866;SDS011;58487;53.474;49.470;2023-02-10T03:13:00;9.05;;;3.10;;
70866;SDS011;58487;53.474;49.470;2023-02-10T03:15:26;13.02;;;4.15;;
70866;SDS011;58487;53.474;49.470;2023-02-10T03:17:52;7.20;;;1.97;;
70866;SDS011;58487;53.474;49.470;2023-02-10T03:20:18;7.97;;;3.10;;
70866;SDS011;58487;53.474;49.470;2023-02-10T03:22:44;13.95;;;4.50;;
70866;SDS011;58487;53.474;49.470;2023-02-10T03:25:10;14.00;;;4.03;;
70866;SDS011;58487;53.474;49.470;2023-02-10T03:27:37;5.80;;;2.20;;
70866;SDS011;58487;53.474;49.470;2023-02-10T03:30:04;9.40;;;3.73;;
70866;SDS011;58487;53.474;49.470;2023-02-10T03:32:31;6.60;;;3.05;;
70866;SDS011;58487;53.474;49.470;2023-02-10T03:34:57;10.38;;;3.45;;
70866;SDS011;58487;53.474;49.470;2023-02-10T03:37:23;10.38;;;4.38;;
70866;SDS011;58487;53.474;49.470;2023-02-10T03:39:49;10.70;;;4.38;;
70866;SDS011;58487;53.474;49.470;2023-02-10T03:42:15;14.13;;;5.30;;
70866;SDS011;58487;53.474;49.470;2023-02-10T03:44:41;16.20;;;5.57;;
70866;SDS011;58487;53.474;49.470;2023-02-10T03:47:07;14.85;;;5.22;;
70866;SDS011;58487;53.474;49.470;2023-02-10T03:49:33;14.00;;;5.15;;
70866;SDS011;58487;53.474;49.470;2023-02-10T03:51:59;15.88;;;3.92;;
70866;SDS011;58487;53.474;49.470;2023-02-10T03:54:25;14.83;;;5.23;;
70866;SDS011;58487;53.474;49.470;2023-02-10T03:56:51;11.15;;;4.45;;
70866;SDS011;58487;53.474;49.470;2023-02-10T03:59:17;7.32;;;2.42;;
70866;SDS011;58487;53.474;49.470;2023-02-10T04:01:43;8.77;;;3.00;;
70866;SDS011;58487;53.474;49.470;2023-02-10T04:04:09;12.73;;;4.00;;
70866;SDS011;58487;53.474;49.470;2023-02-10T04:06:35;8.73;;;3.70;;
70866;SDS011;58487;53.474;49.470;2023-02-10T04:09:01;8.57;;;3.80;;
70866;SDS011;58487;53.474;49.470;2023-02-10T04:11:27;7.82;;;2.85;;
70866;SDS011;58487;53.474;49.470;2023-02-10T04:13:53;5.80;;;2.20;;
70866;SDS011;58487;53.474;49.470;2023-02-10T04:16:19;7.18;;;2.50;;
70866;SDS011;58487;53.474;49.470;2023-02-10T04:18:48;4.20;;;1.83;;
70866;SDS011;58487;53.474;49.470;2023-02-10T04:21:15;10.40;;;2.97;;
70866;SDS011;58487;53.474;49.470;2023-02-10T04:23:41;9.27;;;2.95;;
70866;SDS011;58487;53.474;49.470;2023-02-10T04:26:07;6.93;;;2.33;;
70866;SDS011;58487;53.474;49.470;2023-02-10T04:28:33;5.90;;;2.38;;
70866;SDS011;58487;53.474;49.470;2023-02-10T04:30:59;8.77;;;2.87;;
70866;SDS011;58487;53.474;49.470;2023-02-10T04:33:26;6.55;;;2.42;;
70866;SDS011;58487;53.474;49.470;2023-02-10T04:35:53;6.60;;;2.25;;
70866;SDS011;58487;53.474;49.470;2023-02-10T04:38:20;6.63;;;2.38;;
70866;SDS011;58487;53.474;49.470;2023-02-10T04:40:47;10.85;;;4.10;;
70866;SDS011;58487;53.474;49.470;2023-02-10T04:43:13;7.60;;;2.63;;
70866;SDS011;58487;53.474;49.470;2023-02-10T04:45:39;19.90;;;4.50;;
70866;SDS011;58487;53.474;49.470;2023-02-10T04:48:05;6.72;;;2.80;;
70866;SDS011;58487;53.474;49.470;2023-02-10T04:50:32;8.57;;;2.45;;
70866;SDS011;58487;53.474;49.470;2023-02-10T04:52:58;4.85;;;1.75;;
70866;SDS011;58487;53.474;49.470;2023-02-10T04:55:24;11.63;;;4.47;;
70866;SDS011;58487;53.474;49.470;2023-02-10T04:57:50;12.60;;;4.20;;
70866;SDS011;58487;53.474;49.470;2023-02-10T05:00:17;10.07;;;3.70;;
70866;SDS011;58487;53.474;49.470;2023-02-10T05:02:43;9.77;;;3.67;;
70866;SDS011;58487;53.474;49.470;2023-02-10T05:05:10;10.77;;;3.80;;
70866;SDS011;58487;53.474;49.470;2023-02-10T05:07:40;6.43;;;2.50;;
70866;SDS011;58487;53.474;49.470;2023-02-10T05:10:06;8.80;;;3.72;;
70866;SDS011;58487;53.474;49.470;2023-02-10T05:12:32;14.70;;;4.05;;
70866;SDS011;58487;53.474;49.470;2023-02-10T05:14:58;9.77;;;3.20;;
70866;SDS011;58487;53.474;49.470;2023-02-10T05:17:24;9.68;;;4.20;;
70866;SDS011;58487;53.474;49.470;2023-02-10T05:19:50;14.40;;;5.33;;
70866;SDS011;58487;53.474;49.470;2023-02-10T05:22:16;14.48;;;4.80;;
70866;SDS011;58487;53.474;49.470;2023-02-10T05:24:43;14.05;;;5.15;;
70866;SDS011;58487;53.474;49.470;2023-02-10T05:27:09;10.13;;;3.03;;
70866;SDS011;58487;53.474;49.470;2023-02-10T05:29:35;9.95;;;3.92;;
70866;SDS011;58487;53.474;49.470;2023-02-10T05:32:01;8.40;;;3.30;;
70866;SDS011;58487;53.474;49.470;2023-02-10T05:34:27;7.43;;;2.80;;
70866;SDS011;58487;53.474;49.470;2023-02-10T05:36:53;7.63;;;3.33;;
70866;SDS011;58487;53.474;49.470;2023-02-10T05:39:19;11.23;;;4.35;;
70866;SDS011;58487;53.474;49.470;2023-02-10T05:41:49;14.38;;;5.25;;
70866;SDS011;58487;53.474;49.470;2023-02-10T05:44:16;13.00;;;4.17;;
70866;SDS011;58487;53.474;49.470;2023-02-10T05:46:42;12.15;;;4.53;;
70866;SDS011;58487;53.474;49.470;2023-02-10T05:49:08;15.35;;;5.85;;
70866;SDS011;58487;53.474;49.470;2023-02-10T05:51:34;17.88;;;6.22;;
70866;SDS011;58487;53.474;49.470;2023-02-10T05:54:01;13.13;;;5.07;;
70866;SDS011;58487;53.474;49.470;2023-02-10T05:56:27;21.13;;;7.47;;
70866;SDS011;58487;53.474;49.470;2023-02-10T05:58:54;23.15;;;7.65;;
70866;SDS011;58487;53.474;49.470;2023-02-10T06:01:20;24.27;;;8.23;;
70866;SDS011;58487;53.474;49.470;2023-02-10T06:03:46;12.32;;;5.00;;
70866;SDS011;58487;53.474;49.470;2023-02-10T06:06:12;16.17;;;5.68;;
70866;SDS011;58487;53.474;49.470;2023-02-10T06:08:39;15.40;;;6.30;;
70866;SDS011;58487;53.474;49.470;2023-02-10T06:11:05;19.67;;;7.20;;
70866;SDS011;58487;53.474;49.470;2023-02-10T06:13:32;13.20;;;4.85;;
70866;SDS011;58487;53.474;49.470;2023-02-10T06:15:58;20.80;;;7.32;;
70866;SDS011;58487;53.474;49.470;2023-02-10T06:18:24;20.90;;;7.00;;
70866;SDS011;58487;53.474;49.470;2023-02-10T06:20:50;20.27;;;7.43;;
70866;SDS011;58487;53.474;49.470;2023-02-10T06:23:18;18.92;;;6.82;;
70866;SDS011;58487;53.474;49.470;2023-02-10T06:25:46;15.38;;;4.88;;
70866;SDS011;58487;53.474;49.470;2023-02-10T06:28:12;5.20;;;1.77;;
70866;SDS011;58487;53.474;49.470;2023-02-10T06:30:40;14.63;;;5.90;;
70866;SDS011;58487;53.474;49.470;2023-02-10T06:33:07;11.23;;;3.90;;
70866;SDS011;58487;53.474;49.470;2023-02-10T06:35:33;18.42;;;6.65;;
70866;SDS011;58487;53.474;49.470;2023-02-10T06:37:59;18.98;;;5.97;;
70866;SDS011;58487;53.474;49.470;2023-02-10T06:40:25;22.17;;;7.30;;
70866;SDS011;58487;53.474;49.470;2023-02-10T06:42:51;24.02;;;7.90;;
70866;SDS011;58487;53.474;49.470;2023-02-10T06:45:17;16.80;;;5.57;;
70866;SDS011;58487;53.474;49.470;2023-02-10T06:47:43;20.73;;;6.63;;
70866;SDS011;58487;53.474;49.470;2023-02-10T06:50:09;19.27;;;6.28;;
70866;SDS011;58487;53.474;49.470;2023-02-10T06:52:35;17.30;;;5.95;;
70866;SDS011;58487;53.474;49.470;2023-02-10T06:55:04;10.07;;;3.80;;
70866;SDS011;58487;53.474;49.470;2023-02-10T06:57:33;8.90;;;2.90;;
70866;SDS011;58487;53.474;49.470;2023-02-10T07:00:02;13.50;;;4.80;;
70866;SDS011;58487;53.474;49.470;2023-02-10T07:02:33;16.92;;;5.70;;
70866;SDS011;58487;53.474;49.470;2023-02-10T07:04:59;16.33;;;5.40;;
70866;SDS011;58487;53.474;49.470;2023-02-10T07:07:28;14.93;;;5.72;;
70866;SDS011;58487;53.474;49.470;2023-02-10T07:09:54;14.70;;;6.00;;
70866;SDS011;58487;53.474;49.470;2023-02-10T07:12:20;16.55;;;6.05;;
70866;SDS011;58487;53.474;49.470;2023-02-10T07:14:46;22.60;;;8.23;;
70866;SDS011;58487;53.474;49.470;2023-02-10T07:17:12;19.17;;;5.60;;
70866;SDS011;58487;53.474;49.470;2023-02-10T07:19:38;13.80;;;5.05;;
70866;SDS011;58487;53.474;49.470;2023-02-10T07:22:04;15.70;;;5.87;;
70866;SDS011;58487;53.474;49.470;2023-02-10T07:24:32;11.88;;;3.28;;
70866;SDS011;58487;53.474;49.470;2023-02-10T07:26:58;23.67;;;6.20;;
70866;SDS011;58487;53.474;49.470;2023-02-10T07:29:25;11.00;;;4.50;;
70866;SDS011;58487;53.474;49.470;2023-02-10T07:31:51;8.05;;;3.10;;
70866;SDS011;58487;53.474;49.470;2023-02-10T07:34:17;16.07;;;5.43;;
70866;SDS011;58487;53.474;49.470;2023-02-10T07:36:46;4.78;;;1.55;;
70866;SDS011;58487;53.474;49.470;2023-02-10T07:39:19;4.80;;;1.75;;
70866;SDS011;58487;53.474;49.470;2023-02-10T07:41:46;6.78;;;2.45;;
70866;SDS011;58487;53.474;49.470;2023-02-10T07:44:12;4.13;;;1.65;;
70866;SDS011;58487;53.474;49.470;2023-02-10T07:46:38;6.83;;;2.80;;
70866;SDS011;58487;53.474;49.470;2023-02-10T07:49:04;8.50;;;2.78;;
70866;SDS011;58487;53.474;49.470;2023-02-10T07:51:30;10.40;;;3.35;;
70866;SDS011;58487;53.474;49.470;2023-02-10T07:53:56;8.13;;;2.95;;
70866;SDS011;58487;53.474;49.470;2023-02-10T07:56:22;7.20;;;2.85;;
70866;SDS011;58487;53.474;49.470;2023-02-10T07:58:49;6.90;;;2.17;;
70866;SDS011;58487;53.474;49.470;2023-02-10T08:01:15;9.43;;;2.60;;
70866;SDS011;58487;53.474;49.470;2023-02-10T08:03:41;5.65;;;2.03;;
70866;SDS011;58487;53.474;49.470;2023-02-10T08:06:07;4.63;;;2.22;;
70866;SDS011;58487;53.474;49.470;2023-02-10T08:08:34;6.50;;;2.90;;
70866;SDS011;58487;53.474;49.470;2023-02-10T08:11:03;8.57;;;2.87;;
70866;SDS011;58487;53.474;49.470;2023-02-10T08:13:32;5.75;;;1.60;;
70866;SDS011;58487;53.474;49.470;2023-02-10T08:15:59;5.22;;;1.80;;
70866;SDS011;58487;53.474;49.470;2023-02-10T08:18:28;4.63;;;1.92;;
70866;SDS011;58487;53.474;49.470;2023-02-10T08:20:54;6.57;;;2.25;;
70866;SDS011;58487;53.474;49.470;2023-02-10T08:23:23;5.03;;;1.50;;
70866;SDS011;58487;53.474;49.470;2023-02-10T08:25:49;5.55;;;2.42;;
70866;SDS011;58487;53.474;49.470;2023-02-10T08:28:16;7.55;;;2.17;;
70866;SDS011;58487;53.474;49.470;2023-02-10T08:30:43;6.28;;;2.50;;
70866;SDS011;58487;53.474;49.470;2023-02-10T08:33:09;8.98;;;2.67;;
70866;SDS011;58487;53.474;49.470;2023-02-10T08:35:36;5.43;;;1.93;;
70866;SDS011;58487;53.474;49.470;2023-02-10T08:38:02;5.20;;;2.28;;
70866;SDS011;58487;53.474;49.470;2023-02-10T08:40:29;12.88;;;4.03;;
70866;SDS011;58487;53.474;49.470;2023-02-10T08:42:56;8.82;;;2.78;;
70866;SDS011;58487;53.474;49.470;2023-02-10T08:45:22;7.72;;;1.50;;
70866;SDS011;58487;53.474;49.470;2023-02-10T08:47:48;8.03;;;2.83;;
70866;SDS011;58487;53.474;49.470;2023-02-10T08:50:14;6.40;;;1.58;;
70866;SDS011;58487;53.474;49.470;2023-02-10T08:52:40;5.97;;;1.80;;
70866;SDS011;58487;53.474;49.470;2023-02-10T08:55:07;5.40;;;2.20;;
70866;SDS011;58487;53.474;49.470;2023-02-10T08:57:44;8.38;;;3.08;;
70866;SDS011;58487;53.474;49.470;2023-02-10T09:00:11;5.20;;;2.53;;
70866;SDS011;58487;53.474;49.470;2023-02-10T09:02:37;4.72;;;1.85;;
70866;SDS011;58487;53.474;49.470;2023-02-10T09:05:20;6.25;;;1.95;;
70866;SDS011;58487;53.474;49.470;2023-02-10T09:08:08;7.75;;;2.53;;
70866;SDS011;58487;53.474;49.470;2023-02-10T09:10:54;4.97;;;2.00;;
70866;SDS011;58487;53.474;49.470;2023-02-10T09:16:52;8.57;;;2.03;;
70866;SDS011;58487;53.474;49.470;2023-02-10T09:19:42;4.97;;;2.22;;
70866;SDS011;58487;53.474;49.470;2023-02-10T09:25:40;8.10;;;2.90;;
70866;SDS011;58487;53.474;49.470;2023-02-10T09:28:58;7.70;;;2.87;;
70866;SDS011;58487;53.474;49.470;2023-02-10T09:32:25;11.02;;;3.33;;
70866;SDS011;58487;53.474;49.470;2023-02-10T09:38:16;13.60;;;5.38;;
70866;SDS011;58487;53.474;49.470;2023-02-10T09:41:08;13.88;;;4.35;;
70866;SDS011;58487;53.474;49.470;2023-02-10T09:47:28;12.35;;;3.90;;
70866;SDS011;58487;53.474;49.470;2023-02-10T10:01:45;6.33;;;2.50;;
70866;SDS011;58487;53.474;49.470;2023-02-10T10:04:22;8.70;;;3.30;;
70866;SDS011;58487;53.474;49.470;2023-02-10T10:07:23;4.93;;;1.95;;
70866;SDS011;58487;53.474;49.470;2023-02-10T10:13:20;6.85;;;2.42;;
70866;SDS011;58487;53.474;49.470;2023-02-10T10:19:21;7.40;;;2.60;;
70866;SDS011;58487;53.474;49.470;2023-02-10T10:28:49;6.93;;;2.63;;
70866;SDS011;58487;53.474;49.470;2023-02-10T10:31:32;5.33;;;2.10;;
70866;SDS011;58487;53.474;49.470;2023-02-10T10:34:20;7.28;;;2.30;;
70866;SDS011;58487;53.474;49.470;2023-02-10T10:37:26;6.88;;;2.53;;
70866;SDS011;58487;53.474;49.470;2023-02-10T10:40:37;9.63;;;3.13;;
70866;SDS011;58487;53.474;49.470;2023-02-10T10:49:40;8.35;;;2.85;;
70866;SDS011;58487;53.474;49.470;2023-02-10T10:55:34;11.40;;;4.00;;
70866;SDS011;58487;53.474;49.470;2023-02-10T10:58:37;8.85;;;2.80;;
70866;SDS011;58487;53.474;49.470;2023-02-10T11:01:41;4.93;;;1.93;;
70866;SDS011;58487;53.474;49.470;2023-02-10T11:04:26;7.60;;;2.38;;
70866;SDS011;58487;53.474;49.470;2023-02-10T11:07:23;8.65;;;2.80;;
70866;SDS011;58487;53.474;49.470;2023-02-10T11:13:38;9.57;;;3.10;;
70866;SDS011;58487;53.474;49.470;2023-02-10T11:16:23;7.20;;;2.30;;
70866;SDS011;58487;53.474;49.470;2023-02-10T11:19:52;6.40;;;2.03;;
70866;SDS011;58487;53.474;49.470;2023-02-10T11:23:11;7.90;;;2.47;;
70866;SDS011;58487;53.474;49.470;2023-02-10T11:25:39;8.07;;;3.08;;
70866;SDS011;58487;53.474;49.470;2023-02-10T11:28:06;8.30;;;3.53;;
70866;SDS011;58487;53.474;49.470;2023-02-10T11:30:46;7.17;;;2.50;;
70866;SDS011;58487;53.474;49.470;2023-02-10T11:33:20;11.57;;;3.58;;
70866;SDS011;58487;53.474;49.470;2023-02-10T11:35:53;7.57;;;3.40;;
70866;SDS011;58487;53.474;49.470;2023-02-10T11:38:25;6.57;;;2.53;;
70866;SDS011;58487;53.474;49.470;2023-02-10T11:43:31;9.87;;;4.17;;
70866;SDS011;58487;53.474;49.470;2023-02-10T11:46:03;9.40;;;3.58;;
70866;SDS011;58487;53.474;49.470;2023-02-10T11:48:31;11.07;;;4.90;;
70866;SDS011;58487;53.474;49.470;2023-02-10T11:51:05;9.32;;;3.17;;
70866;SDS011;58487;53.474;49.470;2023-02-10T11:53:39;6.50;;;2.67;;
70866;SDS011;58487;53.474;49.470;2023-02-10T12:01:40;7.28;;;1.95;;
70866;SDS011;58487;53.474;49.470;2023-02-10T12:09:43;5.40;;;1.80;;
70866;SDS011;58487;53.474;49.470;2023-02-10T12:15:16;6.45;;;1.95;;
70866;SDS011;58487;53.474;49.470;2023-02-10T12:26:25;2.75;;;0.93;;
70866;SDS011;58487;53.474;49.470;2023-02-10T12:30:05;3.20;;;1.13;;
70866;SDS011;58487;53.474;49.470;2023-02-10T12:35:29;3.80;;;1.27;;
70866;SDS011;58487;53.474;49.470;2023-02-10T12:41:06;3.70;;;1.40;;
70866;SDS011;58487;53.474;49.470;2023-02-10T12:54:22;3.05;;;1.00;;
70866;SDS011;58487;53.474;49.470;2023-02-10T12:57:08;7.05;;;2.42;;
70866;SDS011;58487;53.474;49.470;2023-02-10T13:05:08;5.70;;;1.53;;
70866;SDS011;58487;53.474;49.470;2023-02-10T13:12:45;8.13;;;2.72;;
70866;SDS011;58487;53.474;49.470;2023-02-10T13:15:15;6.72;;;2.67;;
70866;SDS011;58487;53.474;49.470;2023-02-10T13:17:58;7.03;;;2.10;;
70866;SDS011;58487;53.474;49.470;2023-02-10T13:21:09;5.75;;;2.28;;
70866;SDS011;58487;53.474;49.470;2023-02-10T13:23:28;7.30;;;2.83;;
70866;SDS011;58487;53.474;49.470;2023-02-10T13:34:40;6.82;;;2.20;;
70866;SDS011;58487;53.474;49.470;2023-02-10T13:37:44;7.90;;;3.03;;
70866;SDS011;58487;53.474;49.470;2023-02-10T13:40:20;7.15;;;2.42;;
70866;SDS011;58487;53.474;49.470;2023-02-10T13:45:23;7.63;;;2.80;;
70866;SDS011;58487;53.474;49.470;2023-02-10T13:50:19;6.28;;;2.40;;
70866;SDS011;58487;53.474;49.470;2023-02-10T13:52:55;7.38;;;2.47;;
70866;SDS011;58487;53.474;49.470;2023-02-10T14:00:49;6.18;;;2.65;;
70866;SDS011;58487;53.474;49.470;2023-02-10T14:06:02;6.53;;;2.60;;
70866;SDS011;58487;53.474;49.470;2023-02-10T14:08:38;7.05;;;2.70;;
70866;SDS011;58487;53.474;49.470;2023-02-10T14:13:41;9.50;;;2.88;;
70866;SDS011;58487;53.474;49.470;2023-02-10T14:18:45;7.40;;;2.78;;
70866;SDS011;58487;53.474;49.470;2023-02-10T14:21:25;10.88;;;3.72;;
70866;SDS011;58487;53.474;49.470;2023-02-10T14:23:53;13.27;;;5.10;;
70866;SDS011;58487;53.474;49.470;2023-02-10T14:26:32;6.90;;;2.70;;
70866;SDS011;58487;53.474;49.470;2023-02-10T14:29:00;12.55;;;3.70;;
70866;SDS011;58487;53.474;49.470;2023-02-10T14:31:38;8.13;;;2.47;;
70866;SDS011;58487;53.474;49.470;2023-02-10T14:34:29;11.40;;;4.25;;
70866;SDS011;58487;53.474;49.470;2023-02-10T14:39:21;12.32;;;3.90;;
70866;SDS011;58487;53.474;49.470;2023-02-10T14:41:49;8.70;;;3.83;;
70866;SDS011;58487;53.474;49.470;2023-02-10T14:46:54;13.65;;;3.72;;
70866;SDS011;58487;53.474;49.470;2023-02-10T14:49:20;9.43;;;3.30;;
70866;SDS011;58487;53.474;49.470;2023-02-10T14:51:48;7.93;;;2.88;;
70866;SDS011;58487;53.474;49.470;2023-02-10T14:54:20;8.63;;;3.45;;
70866;SDS011;58487;53.474;49.470;2023-02-10T14:56:52;7.38;;;2.67;;
70866;SDS011;58487;53.474;49.470;2023-02-10T14:59:27;6.70;;;2.88;;
70866;SDS011;58487;53.474;49.470;2023-02-10T15:02:05;11.93;;;4.17;;
70866;SDS011;58487;53.474;49.470;2023-02-10T15:04:45;12.50;;;5.15;;
70866;SDS011;58487;53.474;49.470;2023-02-10T15:07:14;10.15;;;3.47;;
70866;SDS011;58487;53.474;49.470;2023-02-10T15:09:47;8.13;;;3.53;;
70866;SDS011;58487;53.474;49.470;2023-02-10T15:12:15;9.07;;;3.85;;
70866;SDS011;58487;53.474;49.470;2023-02-10T15:14:58;8.93;;;3.40;;
70866;SDS011;58487;53.474;49.470;2023-02-10T15:17:30;8.60;;;3.53;;
70866;SDS011;58487;53.474;49.470;2023-02-10T15:20:20;12.18;;;4.88;;
70866;SDS011;58487;53.474;49.470;2023-02-10T15:23:05;6.57;;;2.75;;
70866;SDS011;58487;53.474;49.470;2023-02-10T15:25:37;7.88;;;3.00;;
70866;SDS011;58487;53.474;49.470;2023-02-10T15:33:15;6.05;;;1.70;;
70866;SDS011;58487;53.474;49.470;2023-02-10T15:35:52;7.97;;;2.28;;
70866;SDS011;58487;53.474;49.470;2023-02-10T15:38:43;10.07;;;3.42;;
70866;SDS011;58487;53.474;49.470;2023-02-10T15:41:30;9.67;;;2.57;;
70866;SDS011;58487;53.474;49.470;2023-02-10T15:44:00;7.50;;;2.60;;
70866;SDS011;58487;53.474;49.470;2023-02-10T15:46:29;7.45;;;3.08;;
70866;SDS011;58487;53.474;49.470;2023-02-10T15:49:05;8.27;;;2.83;;
70866;SDS011;58487;53.474;49.470;2023-02-10T15:51:54;13.75;;;3.25;;
70866;SDS011;58487;53.474;49.470;2023-02-10T15:54:22;9.00;;;3.40;;
70866;SDS011;58487;53.474;49.470;2023-02-10T15:56:55;8.15;;;2.20;;
70866;SDS011;58487;53.474;49.470;2023-02-10T15:59:24;8.68;;;3.03;;
70866;SDS011;58487;53.474;49.470;2023-02-10T16:01:54;7.72;;;2.90;;
70866;SDS011;58487;53.474;49.470;2023-02-10T16:04:25;9.35;;;3.53;;
70866;SDS011;58487;53.474;49.470;2023-02-10T16:06:53;10.43;;;3.93;;
70866;SDS011;58487;53.474;49.470;2023-02-10T16:09:19;9.82;;;3.30;;
70866;SDS011;58487;53.474;49.470;2023-02-10T16:11:45;10.00;;;3.67;;
70866;SDS011;58487;53.474;49.470;2023-02-10T16:14:12;7.60;;;3.17;;
70866;SDS011;58487;53.474;49.470;2023-02-10T16:16:40;6.75;;;2.53;;
70866;SDS011;58487;53.474;49.470;2023-02-10T16:19:18;6.80;;;2.70;;
70866;SDS011;58487;53.474;49.470;2023-02-10T16:21:45;10.27;;;3.30;;
70866;SDS011;58487;53.474;49.470;2023-02-10T16:24:16;9.75;;;3.80;;
70866;SDS011;58487;53.474;49.470;2023-02-10T16:26:44;7.47;;;2.35;;
70866;SDS011;58487;53.474;49.470;2023-02-10T16:29:21;6.82;;;2.65;;
70866;SDS011;58487;53.474;49.470;2023-02-10T16:31:53;5.37;;;1.53;;
70866;SDS011;58487;53.474;49.470;2023-02-10T16:34:19;8.23;;;2.38;;
70866;SDS011;58487;53.474;49.470;2023-02-10T16:36:45;9.65;;;3.25;;
70866;SDS011;58487;53.474;49.470;2023-02-10T16:39:12;7.50;;;2.80;;
70866;SDS011;58487;53.474;49.470;2023-02-10T16:41:40;7.65;;;2.90;;
70866;SDS011;58487;53.474;49.470;2023-02-10T16:44:06;11.40;;;3.97;;
70866;SDS011;58487;53.474;49.470;2023-02-10T16:46:32;10.65;;;3.53;;
70866;SDS011;58487;53.474;49.470;2023-02-10T16:48:58;7.65;;;3.05;;
70866;SDS011;58487;53.474;49.470;2023-02-10T16:51:24;8.65;;;3.15;;
70866;SDS011;58487;53.474;49.470;2023-02-10T16:53:50;9.70;;;3.67;;
70866;SDS011;58487;53.474;49.470;2023-02-10T16:56:20;8.97;;;3.30;;
70866;SDS011;58487;53.474;49.470;2023-02-10T16:58:47;9.15;;;3.40;;
70866;SDS011;58487;53.474;49.470;2023-02-10T17:01:13;9.63;;;3.30;;
70866;SDS011;58487;53.474;49.470;2023-02-10T17:03:39;7.60;;;3.22;;
70866;SDS011;58487;53.474;49.470;2023-02-10T17:06:05;11.10;;;4.03;;
70866;SDS011;58487;53.474;49.470;2023-02-10T17:08:32;6.88;;;2.60;;
70866;SDS011;58487;53.474;49.470;2023-02-10T17:10:58;7.97;;;2.75;;
70866;SDS011;58487;53.474;49.470;2023-02-10T17:13:24;7.63;;;3.30;;
70866;SDS011;58487;53.474;49.470;2023-02-10T17:15:50;8.35;;;2.47;;
70866;SDS011;58487;53.474;49.470;2023-02-10T17:18:18;9.10;;;3.40;;
70866;SDS011;58487;53.474;49.470;2023-02-10T17:20:44;5.72;;;2.28;;
70866;SDS011;58487;53.474;49.470;2023-02-10T17:23:10;7.00;;;2.60;;
70866;SDS011;58487;53.474;49.470;2023-02-10T17:25:39;10.20;;;3.85;;
70866;SDS011;58487;53.474;49.470;2023-02-10T17:28:05;9.30;;;3.40;;
70866;SDS011;58487;53.474;49.470;2023-02-10T17:30:33;9.87;;;4.03;;
70866;SDS011;58487;53.474;49.470;2023-02-10T17:33:01;8.68;;;3.58;;
70866;SDS011;58487;53.474;49.470;2023-02-10T17:35:28;6.47;;;2.53;;
70866;SDS011;58487;53.474;49.470;2023-02-10T17:37:55;8.30;;;3.95;;
70866;SDS011;58487;53.474;49.470;2023-02-10T17:40:43;10.15;;;3.17;;
70866;SDS011;58487;53.474;49.470;2023-02-10T17:43:09;11.03;;;3.77;;